createdAt,value
2018-09-25T00:00:14.345Z,93.40
2018-09-25T00:02:47.940Z,93.50
2018-09-25T00:05:21.582Z,93.30
2018-09-25T00:07:55.295Z,93.10
2018-09-25T00:10:28.789Z,93.30
2018-09-25T00:13:02.171Z,93.20
2018-09-25T00:15:35.634Z,93.10
2018-09-25T00:18:10.299Z,93.40
2018-09-25T00:20:44.055Z,93.30
2018-09-25T00:23:17.435Z,93.30
2018-09-25T00:25:50.968Z,93.60
2018-09-25T00:28:24.511Z,93.60
2018-09-25T00:30:57.956Z,93.60
2018-09-25T00:33:31.499Z,93.60
2018-09-25T00:36:05.075Z,93.70
2018-09-25T00:38:38.511Z,93.70
2018-09-25T00:41:12.032Z,93.50
2018-09-25T00:43:45.616Z,93.80
2018-09-25T00:46:19.188Z,93.90
2018-09-25T00:48:52.579Z,93.80
2018-09-25T00:51:26.009Z,93.70
2018-09-25T00:53:59.568Z,93.60
2018-09-25T00:56:33.452Z,93.80
2018-09-25T00:59:07.154Z,93.80
2018-09-25T01:01:40.679Z,93.70
2018-09-25T01:04:14.288Z,93.80
2018-09-25T01:06:47.842Z,93.70
2018-09-25T01:09:21.410Z,94.00
2018-09-25T01:11:54.847Z,94.30
2018-09-25T01:14:28.373Z,94.50
2018-09-25T01:17:01.795Z,94.70
2018-09-25T01:19:35.206Z,94.60
2018-09-25T01:22:08.781Z,94.40
2018-09-25T01:24:42.431Z,94.20
2018-09-25T01:27:15.871Z,94.40
2018-09-25T01:29:49.371Z,94.60
2018-09-25T01:32:22.975Z,94.60
2018-09-25T01:34:56.512Z,94.40
2018-09-25T01:37:30.457Z,94.40
2018-09-25T01:40:04.165Z,94.80
2018-09-25T01:42:37.704Z,94.70
2018-09-25T01:45:11.367Z,94.50
2018-09-25T01:47:44.904Z,94.40
2018-09-25T01:50:18.536Z,94.30
2018-09-25T01:52:52.475Z,94.30
2018-09-25T01:55:26.047Z,94.30
2018-09-25T01:57:59.864Z,94.40
2018-09-25T02:00:33.461Z,94.40
2018-09-25T02:03:07.262Z,94.30
2018-09-25T02:05:40.897Z,94.30
2018-09-25T02:08:14.850Z,94.40
2018-09-25T02:10:48.495Z,94.30
2018-09-25T02:13:22.054Z,94.40
2018-09-25T02:15:55.685Z,94.40
2018-09-25T02:18:29.384Z,94.20
2018-09-25T02:21:02.875Z,94.10
2018-09-25T02:23:36.387Z,94.10
2018-09-25T02:26:10.271Z,94.30
2018-09-25T02:28:43.836Z,94.50
2018-09-25T02:31:17.531Z,94.80
2018-09-25T02:33:51.200Z,94.70
2018-09-25T02:36:24.899Z,94.60
2018-09-25T02:38:58.719Z,94.60
2018-09-25T02:41:32.175Z,95.00
2018-09-25T02:44:05.812Z,95.20
2018-09-25T02:46:39.397Z,95.50
2018-09-25T02:49:12.928Z,95.60
2018-09-25T02:51:46.952Z,95.60
2018-09-25T02:54:20.389Z,95.60
2018-09-25T02:56:53.798Z,96.00
2018-09-25T02:59:27.397Z,95.70
2018-09-25T03:02:00.907Z,95.60
2018-09-25T03:04:34.498Z,95.50
2018-09-25T03:07:08.056Z,95.70
2018-09-25T03:09:41.757Z,95.90
2018-09-25T03:12:15.116Z,95.70
2018-09-25T03:14:48.681Z,95.50
2018-09-25T03:17:22.168Z,95.30
2018-09-25T03:19:55.708Z,95.50
2018-09-25T03:22:29.444Z,95.80
2018-09-25T03:25:05.906Z,95.60
2018-09-25T03:27:44.231Z,95.40
2018-09-25T03:30:17.912Z,95.40
2018-09-25T03:32:51.567Z,95.20
2018-09-25T03:35:25.251Z,95.30
2018-09-25T03:38:01.764Z,95.10
2018-09-25T03:40:35.715Z,95.20
2018-09-25T03:43:09.048Z,95.20
2018-09-25T03:45:42.615Z,95.40
2018-09-25T03:48:16.060Z,95.50
2018-09-25T03:50:49.595Z,95.20
2018-09-25T03:53:23.136Z,95.00
2018-09-25T03:55:56.709Z,95.10
2018-09-25T03:58:30.410Z,95.30
2018-09-25T04:01:03.987Z,95.30
2018-09-25T04:03:37.992Z,95.20
2018-09-25T04:06:11.716Z,95.50
2018-09-25T04:08:45.073Z,95.60
2018-09-25T04:11:18.711Z,95.70
2018-09-25T04:13:52.123Z,96.00
2018-09-25T04:16:25.571Z,96.00
2018-09-25T04:18:59.096Z,96.00
2018-09-25T04:21:32.731Z,96.00
2018-09-25T04:24:06.512Z,96.10
2018-09-25T04:26:40.244Z,96.00
2018-09-25T04:29:13.817Z,95.60
2018-09-25T04:31:47.361Z,95.50
2018-09-25T04:34:20.902Z,95.20
2018-09-25T04:36:54.292Z,95.20
2018-09-25T04:39:27.779Z,95.40
2018-09-25T04:42:01.170Z,95.20
2018-09-25T04:44:34.761Z,95.00
2018-09-25T04:47:08.275Z,95.10
2018-09-25T04:49:41.750Z,95.50
2018-09-25T04:52:15.251Z,95.60
2018-09-25T04:54:48.826Z,95.40
2018-09-25T04:57:22.756Z,95.00
2018-09-25T04:59:56.327Z,95.10
2018-09-25T05:02:29.951Z,94.80
2018-09-25T05:05:03.618Z,94.70
2018-09-25T05:07:37.240Z,94.70
2018-09-25T05:10:10.892Z,94.70
2018-09-25T05:12:44.447Z,94.60
2018-09-25T05:15:17.932Z,94.50
2018-09-25T05:17:51.369Z,94.40
2018-09-25T05:20:24.935Z,94.30
2018-09-25T05:22:58.376Z,94.50
2018-09-25T05:25:31.832Z,94.60
2018-09-25T05:28:05.326Z,94.50
2018-09-25T05:30:38.620Z,94.60
2018-09-25T05:33:12.166Z,94.60
2018-09-25T05:35:45.855Z,94.70
2018-09-25T05:38:19.431Z,94.70
2018-09-25T05:40:52.932Z,95.20
2018-09-25T05:43:26.311Z,95.30
2018-09-25T05:45:59.895Z,95.50
2018-09-25T05:48:33.751Z,95.40
2018-09-25T05:51:07.150Z,95.80
2018-09-25T05:53:40.726Z,95.60
2018-09-25T05:56:14.189Z,95.70
2018-09-25T05:58:47.683Z,95.90
2018-09-25T06:01:21.149Z,95.80
2018-09-25T06:03:54.724Z,96.40
2018-09-25T06:06:28.160Z,95.60
2018-09-25T06:09:01.660Z,95.70
2018-09-25T06:11:36.512Z,95.40
2018-09-25T06:14:10.072Z,95.20
2018-09-25T06:16:43.662Z,95.10
2018-09-25T06:19:17.079Z,95.10
2018-09-25T06:21:51.309Z,94.70
2018-09-25T06:24:24.784Z,94.80
2018-09-25T06:26:58.355Z,94.90
2018-09-25T06:29:31.886Z,94.60
2018-09-25T06:32:05.372Z,94.40
2018-09-25T06:34:38.909Z,93.40
2018-09-25T06:37:12.345Z,92.80
2018-09-25T06:39:45.888Z,92.70
2018-09-25T06:42:19.516Z,92.70
2018-09-25T06:44:53.083Z,93.10
2018-09-25T06:47:26.780Z,93.50
2018-09-25T06:50:00.363Z,93.90
2018-09-25T06:52:34.139Z,94.00
2018-09-25T06:55:07.784Z,93.90
2018-09-25T06:57:41.164Z,93.90
2018-09-25T07:00:15.012Z,94.20
2018-09-25T07:02:48.920Z,94.40
2018-09-25T07:05:22.466Z,94.40
2018-09-25T07:07:55.979Z,94.00
2018-09-25T07:10:29.857Z,93.60
2018-09-25T07:13:03.278Z,93.50
2018-09-25T07:15:36.847Z,93.20
2018-09-25T07:18:10.478Z,93.10
2018-09-25T07:20:43.996Z,93.00
2018-09-25T07:23:17.679Z,93.00
2018-09-25T07:25:51.253Z,93.20
2018-09-25T07:28:24.880Z,92.70
2018-09-25T07:30:58.230Z,92.80
2018-09-25T07:33:31.960Z,92.70
2018-09-25T07:36:05.479Z,92.60
2018-09-25T07:38:38.894Z,92.70
2018-09-25T07:41:12.416Z,93.10
2018-09-25T07:43:46.021Z,93.20
2018-09-25T07:49:24.104Z,92.90
2018-09-25T07:51:57.890Z,93.00
2018-09-25T07:54:31.455Z,93.00
2018-09-25T07:57:04.923Z,93.00
2018-09-25T07:59:38.564Z,93.10
2018-09-25T08:02:12.161Z,93.00
2018-09-25T08:04:45.699Z,92.20
2018-09-25T08:07:19.215Z,91.70
2018-09-25T08:09:52.901Z,91.50
2018-09-25T08:12:26.420Z,92.20
2018-09-25T08:15:00.147Z,92.10
2018-09-25T08:17:33.615Z,91.70
2018-09-25T08:20:06.923Z,91.20
2018-09-25T08:22:40.497Z,90.40
2018-09-25T08:25:13.891Z,90.30
2018-09-25T08:27:48.263Z,90.30
2018-09-25T08:30:22.687Z,90.20
2018-09-25T08:32:57.103Z,90.00
2018-09-25T08:35:31.011Z,88.80
2018-09-25T08:38:04.868Z,87.70
2018-09-25T08:40:38.297Z,84.10
2018-09-25T08:43:11.700Z,83.80
2018-09-25T08:45:45.051Z,85.40
2018-09-25T08:48:18.414Z,85.90
2018-09-25T08:50:51.863Z,85.80
2018-09-25T08:53:25.307Z,86.10
2018-09-25T08:55:58.879Z,84.10
2018-09-25T08:58:32.692Z,82.60
2018-09-25T09:01:06.407Z,77.50
2018-09-25T09:03:39.848Z,66.60
2018-09-25T09:06:13.464Z,57.60
2018-09-25T09:08:48.026Z,52.50
2018-09-25T09:11:21.568Z,46.30
2018-09-25T09:13:55.047Z,42.50
2018-09-25T09:16:28.529Z,39.70
2018-09-25T09:19:02.601Z,38.80
2018-09-25T09:21:36.407Z,35.90
2018-09-25T09:24:10.226Z,35.30
2018-09-25T09:29:17.505Z,30.80
2018-09-25T09:31:51.030Z,31.10
2018-09-25T09:34:24.548Z,31.80
2018-09-25T09:36:58.333Z,30.30
2018-09-25T09:39:31.811Z,29.80
2018-09-25T09:42:05.571Z,29.20
2018-09-25T09:44:39.780Z,28.90
2018-09-25T09:47:13.818Z,28.60
2018-09-25T09:49:48.917Z,29.20
2018-09-25T09:52:22.979Z,29.60
2018-09-25T09:54:56.570Z,28.80
2018-09-25T09:57:30.216Z,29.10
2018-09-25T10:00:03.787Z,27.60
2018-09-25T10:02:37.263Z,26.90
2018-09-25T10:05:10.716Z,25.90
2018-09-25T10:07:44.351Z,25.70
2018-09-25T10:10:17.744Z,25.30
2018-09-25T10:12:51.038Z,25.50
2018-09-25T10:15:24.619Z,26.20
2018-09-25T10:17:58.170Z,25.80
2018-09-25T10:20:31.463Z,26.10
2018-09-25T10:23:04.924Z,25.20
2018-09-25T10:25:38.474Z,25.40
2018-09-25T10:28:12.295Z,25.10
2018-09-25T10:30:45.887Z,25.50
2018-09-25T10:33:19.259Z,24.30
2018-09-25T10:35:52.708Z,23.80
2018-09-25T10:38:26.373Z,23.40
2018-09-25T10:40:59.912Z,24.30
2018-09-25T10:43:33.332Z,25.80
2018-09-25T10:46:06.770Z,27.50
2018-09-25T10:48:40.243Z,28.60
2018-09-25T10:51:13.915Z,29.60
2018-09-25T10:53:48.303Z,31.20
2018-09-25T10:56:22.040Z,32.70
2018-09-25T10:58:55.615Z,35.00
2018-09-25T11:01:29.323Z,36.50
2018-09-25T11:04:02.958Z,37.70
2018-09-25T11:06:36.503Z,39.10
2018-09-25T11:09:13.266Z,40.00
2018-09-25T11:11:47.351Z,41.90
2018-09-25T11:14:20.903Z,43.30
2018-09-25T11:16:54.647Z,42.50
2018-09-25T11:19:28.218Z,43.70
2018-09-25T11:22:01.933Z,44.00
2018-09-25T11:24:35.627Z,43.50
2018-09-25T11:27:09.247Z,44.20
2018-09-25T11:29:42.749Z,44.90
2018-09-25T11:32:16.419Z,43.20
2018-09-25T11:34:50.039Z,44.10
2018-09-25T11:37:23.631Z,45.50
2018-09-25T11:39:57.215Z,45.40
2018-09-25T11:42:30.771Z,44.20
2018-09-25T11:45:04.319Z,43.90
2018-09-25T11:47:37.924Z,42.80
2018-09-25T11:50:11.677Z,42.70
2018-09-25T11:52:46.177Z,42.20
2018-09-25T11:55:20.571Z,42.80
2018-09-25T11:57:55.006Z,42.90
2018-09-25T12:00:29.282Z,42.60
2018-09-25T12:03:03.666Z,41.30
2018-09-25T12:05:37.897Z,41.80
2018-09-25T12:08:12.122Z,42.40
2018-09-25T12:10:45.899Z,41.30
2018-09-25T12:13:19.483Z,40.40
2018-09-25T12:15:52.950Z,38.80
2018-09-25T12:18:26.692Z,35.20
2018-09-25T12:21:00.287Z,36.30
2018-09-25T12:23:33.809Z,36.10
2018-09-25T12:26:07.471Z,36.50
2018-09-25T12:28:41.190Z,37.30
2018-09-25T12:31:15.052Z,37.90
2018-09-25T12:33:48.957Z,39.00
2018-09-25T12:36:22.528Z,39.30
2018-09-25T12:38:56.532Z,36.80
2018-09-25T12:41:30.114Z,35.90
2018-09-25T12:44:03.775Z,36.60
2018-09-25T12:46:37.424Z,34.10
2018-09-25T12:49:11.199Z,31.50
2018-09-25T12:51:44.808Z,31.70
2018-09-25T12:54:18.839Z,31.60
2018-09-25T12:56:52.639Z,33.20
2018-09-25T12:59:26.450Z,31.60
2018-09-25T13:02:00.708Z,29.90
2018-09-25T13:04:34.380Z,28.10
2018-09-25T13:07:08.482Z,28.60
2018-09-25T13:09:41.963Z,29.00
2018-09-25T13:12:15.592Z,27.70
2018-09-25T13:14:49.201Z,28.60
2018-09-25T13:17:22.684Z,28.60
2018-09-25T13:19:56.124Z,27.10
2018-09-25T13:22:30.148Z,28.00
2018-09-25T13:25:03.848Z,28.00
2018-09-25T13:27:37.299Z,27.80
2018-09-25T13:30:10.915Z,27.10
2018-09-25T13:32:44.471Z,27.40
2018-09-25T13:35:18.356Z,28.50
2018-09-25T13:37:51.928Z,28.50
2018-09-25T13:40:25.427Z,28.30
2018-09-25T13:42:59.028Z,29.20
2018-09-25T13:45:33.004Z,29.60
2018-09-25T13:48:06.691Z,29.90
2018-09-25T13:50:40.548Z,30.20
2018-09-25T13:53:14.796Z,32.70
2018-09-25T13:55:48.676Z,33.10
2018-09-25T13:58:22.946Z,34.90
2018-09-25T14:00:56.395Z,35.10
2018-09-25T14:03:30.140Z,34.50
2018-09-25T14:06:03.718Z,34.00
2018-09-25T14:08:37.253Z,32.40
2018-09-25T14:11:10.782Z,32.90
2018-09-25T14:13:44.533Z,32.20
2018-09-25T14:16:18.256Z,31.80
2018-09-25T14:18:51.796Z,33.30
2018-09-25T14:21:25.276Z,32.80
2018-09-25T14:23:59.060Z,33.90
2018-09-25T14:26:32.797Z,33.70
2018-09-25T14:29:06.319Z,33.50
2018-09-25T14:31:40.039Z,31.80
2018-09-25T14:34:13.655Z,30.80
2018-09-25T14:36:47.918Z,32.10
2018-09-25T14:39:28.441Z,32.20
2018-09-25T14:42:01.887Z,32.30
2018-09-25T14:44:35.403Z,33.40
2018-09-25T14:47:08.977Z,35.00
2018-09-25T14:49:42.727Z,33.30
2018-09-25T14:52:16.344Z,33.40
2018-09-25T14:54:49.988Z,34.10
2018-09-25T14:57:23.662Z,34.80
2018-09-25T14:59:57.208Z,36.10
2018-09-25T15:02:30.935Z,35.10
2018-09-25T15:05:04.352Z,36.30
2018-09-25T15:07:37.923Z,38.00
2018-09-25T15:10:11.679Z,37.80
2018-09-25T15:12:45.279Z,37.30
2018-09-25T15:15:18.769Z,37.60
2018-09-25T15:17:52.593Z,37.30
2018-09-25T15:20:26.139Z,38.60
2018-09-25T15:22:59.628Z,38.80
2018-09-25T15:25:33.302Z,37.70
2018-09-25T15:28:06.824Z,37.40
2018-09-25T15:30:40.315Z,38.40
2018-09-25T15:33:13.776Z,37.60
2018-09-25T15:35:47.450Z,37.80
2018-09-25T15:38:21.600Z,38.50
2018-09-25T15:40:55.200Z,38.80
2018-09-25T15:43:28.880Z,40.70
2018-09-25T15:46:02.469Z,39.00
2018-09-25T15:48:36.204Z,39.40
2018-09-25T15:51:09.747Z,39.10
2018-09-25T15:53:43.328Z,40.10
2018-09-25T15:56:16.880Z,40.60
2018-09-25T15:58:50.299Z,40.90
2018-09-25T16:01:25.795Z,42.80
2018-09-25T16:03:59.338Z,43.20
2018-09-25T16:06:32.890Z,42.80
2018-09-25T16:09:06.532Z,43.40
2018-09-25T16:11:40.292Z,43.70
2018-09-25T16:14:13.972Z,43.90
2018-09-25T16:16:47.540Z,44.50
2018-09-25T16:19:21.007Z,44.30
2018-09-25T16:21:54.601Z,44.60
2018-09-25T16:24:28.270Z,45.00
2018-09-25T16:27:01.843Z,44.90
2018-09-25T16:29:35.296Z,45.00
2018-09-25T16:32:09.055Z,44.80
2018-09-25T16:34:42.885Z,46.10
2018-09-25T16:37:16.476Z,47.40
2018-09-25T16:39:49.975Z,47.60
2018-09-25T16:42:23.972Z,49.00
2018-09-25T16:44:57.516Z,49.00
2018-09-25T16:47:31.050Z,48.50
2018-09-25T16:50:04.532Z,48.80
2018-09-25T16:52:38.809Z,48.90
2018-09-25T16:55:12.491Z,49.70
2018-09-25T16:57:46.203Z,50.40
2018-09-25T17:00:19.728Z,51.20
2018-09-25T17:02:53.411Z,52.10
2018-09-25T17:05:27.216Z,52.50
2018-09-25T17:08:01.232Z,52.80
2018-09-25T17:10:34.698Z,53.30
2018-09-25T17:13:08.745Z,54.80
2018-09-25T17:15:42.319Z,55.10
2018-09-25T17:18:15.914Z,56.60
2018-09-25T17:20:49.544Z,57.20
2018-09-25T17:23:23.292Z,57.40
2018-09-25T17:25:57.024Z,58.40
2018-09-25T17:28:30.510Z,59.00
2018-09-25T17:31:04.157Z,60.80
2018-09-25T17:33:37.823Z,62.20
2018-09-25T17:36:11.331Z,62.70
2018-09-25T17:38:44.967Z,64.60
2018-09-25T17:41:18.645Z,66.60
2018-09-25T17:43:52.372Z,66.00
2018-09-25T17:46:26.056Z,67.30
2018-09-25T17:49:00.807Z,69.10
2018-09-25T17:51:35.884Z,70.70
2018-09-25T17:54:09.997Z,72.10
2018-09-25T17:56:44.523Z,72.90
2018-09-25T17:59:18.590Z,74.00
2018-09-25T18:01:53.105Z,74.30
2018-09-25T18:04:27.245Z,75.70
2018-09-25T18:07:01.688Z,76.20
2018-09-25T18:09:35.200Z,77.60
2018-09-25T18:12:08.703Z,77.50
2018-09-25T18:14:42.321Z,78.10
2018-09-25T18:17:16.090Z,78.60
2018-09-25T18:19:49.766Z,78.80
2018-09-25T18:22:23.322Z,78.70
2018-09-25T18:24:56.896Z,78.50
2018-09-25T18:27:30.554Z,78.60
2018-09-25T18:30:04.032Z,78.60
2018-09-25T18:32:37.535Z,79.00
2018-09-25T18:35:11.151Z,79.50
2018-09-25T18:37:44.667Z,80.00
2018-09-25T18:40:18.243Z,79.20
2018-09-25T18:42:51.951Z,79.40
2018-09-25T18:45:25.668Z,79.60
2018-09-25T18:47:59.520Z,79.60
2018-09-25T18:50:33.361Z,80.10
2018-09-25T18:53:06.956Z,79.10
2018-09-25T18:55:40.827Z,79.30
2018-09-25T18:58:14.273Z,79.70
2018-09-25T19:00:47.762Z,80.30
2018-09-25T19:03:21.599Z,81.10
2018-09-25T19:05:55.141Z,81.20
2018-09-25T19:08:28.636Z,81.70
2018-09-25T19:11:02.502Z,81.70
2018-09-25T19:13:37.200Z,82.10
2018-09-25T19:16:11.015Z,82.80
2018-09-25T19:18:44.820Z,83.10
2018-09-25T19:21:18.179Z,83.80
2018-09-25T19:23:51.936Z,83.70
2018-09-25T19:26:25.316Z,83.40
2018-09-25T19:28:58.887Z,84.40
2018-09-25T19:31:32.773Z,83.60
2018-09-25T19:34:06.464Z,84.20
2018-09-25T19:36:39.947Z,84.80
2018-09-25T19:39:14.405Z,85.40
2018-09-25T19:41:48.255Z,85.10
2018-09-25T19:44:21.804Z,85.80
2018-09-25T19:46:55.407Z,86.20
2018-09-25T19:49:28.966Z,86.10
2018-09-25T19:52:02.461Z,86.50
2018-09-25T19:54:35.829Z,86.60
2018-09-25T19:57:09.419Z,86.20
2018-09-25T19:59:43.029Z,85.70
2018-09-25T20:02:16.692Z,84.60
2018-09-25T20:04:50.797Z,81.80
2018-09-25T20:07:24.603Z,81.80
2018-09-25T20:09:58.184Z,81.90
2018-09-25T20:12:31.736Z,81.60
2018-09-25T20:15:05.227Z,81.30
2018-09-25T20:17:39.268Z,80.10
2018-09-25T20:20:13.291Z,80.80
2018-09-25T20:22:46.803Z,80.20
2018-09-25T20:25:21.069Z,79.70
2018-09-25T20:27:55.265Z,79.70
2018-09-25T20:30:28.964Z,80.00
2018-09-25T20:33:02.547Z,81.00
2018-09-25T20:35:36.275Z,81.70
2018-09-25T20:38:09.863Z,82.20
2018-09-25T20:40:44.455Z,82.60
2018-09-25T20:43:18.165Z,83.10
2018-09-25T20:45:51.891Z,82.50
2018-09-25T20:48:25.663Z,83.50
2018-09-25T20:50:59.191Z,84.40
2018-09-25T20:53:32.650Z,85.10
2018-09-25T20:56:06.323Z,85.80
2018-09-25T20:58:40.040Z,85.70
2018-09-25T21:01:13.775Z,86.10
2018-09-25T21:03:47.635Z,86.80
2018-09-25T21:06:21.653Z,86.60
2018-09-25T21:08:55.246Z,86.70
2018-09-25T21:11:28.754Z,87.00
2018-09-25T21:14:02.372Z,86.80
2018-09-25T21:16:36.035Z,86.50
2018-09-25T21:19:09.666Z,86.40
2018-09-25T21:21:43.319Z,86.80
2018-09-25T21:24:17.339Z,86.90
2018-09-25T21:26:50.834Z,86.50
2018-09-25T21:29:24.407Z,86.80
2018-09-25T21:31:57.834Z,87.50
2018-09-25T21:34:31.349Z,87.80
2018-09-25T21:37:04.822Z,87.40
2018-09-25T21:39:38.418Z,89.20
2018-09-25T21:42:12.097Z,88.80
2018-09-25T21:44:45.794Z,90.20
2018-09-25T21:47:19.463Z,90.60
2018-09-25T21:49:53.406Z,90.50
2018-09-25T21:52:27.005Z,90.00
2018-09-25T21:55:00.807Z,89.50
2018-09-25T21:57:34.556Z,89.10
2018-09-25T22:00:07.900Z,90.00
2018-09-25T22:02:41.379Z,89.30
2018-09-25T22:05:14.999Z,90.00
2018-09-25T22:07:48.600Z,90.40
2018-09-25T22:10:22.333Z,90.00
2018-09-25T22:12:55.736Z,90.30
2018-09-25T22:15:29.418Z,90.30
2018-09-25T22:20:36.444Z,89.80
2018-09-25T22:23:10.129Z,89.60
2018-09-25T22:28:17.152Z,89.40
2018-09-25T22:30:50.706Z,90.00
2018-09-25T22:33:24.182Z,89.90
2018-09-25T22:35:57.920Z,89.10
2018-09-25T22:38:31.467Z,87.70
2018-09-25T22:41:05.346Z,87.60
2018-09-25T22:43:38.906Z,88.10
2018-09-25T22:46:12.531Z,88.20
2018-09-25T22:48:45.979Z,88.00
2018-09-25T22:51:19.663Z,88.30
2018-09-25T22:53:53.599Z,87.80
2018-09-25T22:56:27.144Z,87.70
2018-09-25T22:59:00.840Z,86.80
2018-09-25T23:01:34.662Z,87.80
2018-09-25T23:04:08.374Z,87.30
2018-09-25T23:06:41.995Z,87.10
2018-09-25T23:09:15.659Z,86.90
2018-09-25T23:11:49.241Z,85.80
2018-09-25T23:14:23.139Z,85.20
2018-09-25T23:16:56.791Z,84.70
2018-09-25T23:19:30.189Z,84.90
2018-09-25T23:22:03.790Z,84.20
2018-09-25T23:24:37.494Z,84.40
2018-09-25T23:27:11.416Z,83.50
2018-09-25T23:29:44.789Z,82.70
2018-09-25T23:32:18.695Z,83.20
2018-09-25T23:34:52.265Z,83.40
2018-09-25T23:37:25.793Z,81.40
2018-09-25T23:40:57.090Z,80.50
2018-09-25T23:43:44.479Z,80.30
2018-09-25T23:46:17.914Z,80.20
2018-09-25T23:48:57.257Z,80.40
2018-09-25T23:51:34.892Z,80.10
2018-09-25T23:54:06.408Z,79.60
2018-09-25T23:56:38.079Z,79.90
2018-09-25T23:59:12.451Z,79.30
